sensor_id;sensor_type;location;lat;lon;timestamp;P1;durP1;ratioP1;P2;durP2;ratioP2
48621;SDS011;34421;48.944;9.460;2022-07-29T00:01:48;2.35;;;1.50;;
48621;SDS011;34421;48.944;9.460;2022-07-29T00:04:13;2.20;;;1.42;;
48621;SDS011;34421;48.944;9.460;2022-07-29T00:06:39;2.60;;;1.50;;
48621;SDS011;34421;48.944;9.460;2022-07-29T00:09:04;2.30;;;1.30;;
48621;SDS011;34421;48.944;9.460;2022-07-29T00:11:30;2.38;;;1.33;;
48621;SDS011;34421;48.944;9.460;2022-07-29T00:13:55;2.70;;;1.60;;
48621;SDS011;34421;48.944;9.460;2022-07-29T00:16:20;2.05;;;1.35;;
48621;SDS011;34421;48.944;9.460;2022-07-29T00:18:46;2.15;;;1.35;;
48621;SDS011;34421;48.944;9.460;2022-07-29T00:21:11;3.17;;;1.90;;
48621;SDS011;34421;48.944;9.460;2022-07-29T00:23:36;2.95;;;1.90;;
48621;SDS011;34421;48.944;9.460;2022-07-29T00:26:02;2.47;;;1.65;;
48621;SDS011;34421;48.944;9.460;2022-07-29T00:28:27;2.88;;;1.73;;
48621;SDS011;34421;48.944;9.460;2022-07-29T00:30:53;3.50;;;1.77;;
48621;SDS011;34421;48.944;9.460;2022-07-29T00:33:18;3.33;;;2.28;;
48621;SDS011;34421;48.944;9.460;2022-07-29T00:35:43;2.25;;;1.33;;
48621;SDS011;34421;48.944;9.460;2022-07-29T00:38:12;3.15;;;1.73;;
48621;SDS011;34421;48.944;9.460;2022-07-29T00:40:39;2.60;;;1.50;;
48621;SDS011;34421;48.944;9.460;2022-07-29T00:43:05;3.42;;;1.70;;
48621;SDS011;34421;48.944;9.460;2022-07-29T00:45:31;2.88;;;1.90;;
48621;SDS011;34421;48.944;9.460;2022-07-29T00:47:57;2.65;;;1.73;;
48621;SDS011;34421;48.944;9.460;2022-07-29T00:50:22;3.20;;;2.20;;
48621;SDS011;34421;48.944;9.460;2022-07-29T00:52:48;3.40;;;1.90;;
48621;SDS011;34421;48.944;9.460;2022-07-29T00:55:15;2.75;;;1.88;;
48621;SDS011;34421;48.944;9.460;2022-07-29T00:57:41;2.92;;;1.52;;
48621;SDS011;34421;48.944;9.460;2022-07-29T01:00:10;2.33;;;1.60;;
48621;SDS011;34421;48.944;9.460;2022-07-29T01:02:38;3.20;;;1.88;;
48621;SDS011;34421;48.944;9.460;2022-07-29T01:05:04;2.55;;;1.40;;
48621;SDS011;34421;48.944;9.460;2022-07-29T01:07:31;3.38;;;2.17;;
48621;SDS011;34421;48.944;9.460;2022-07-29T01:09:58;2.85;;;1.65;;
48621;SDS011;34421;48.944;9.460;2022-07-29T01:12:26;2.42;;;1.50;;
48621;SDS011;34421;48.944;9.460;2022-07-29T01:14:53;4.05;;;1.88;;
48621;SDS011;34421;48.944;9.460;2022-07-29T01:17:28;2.95;;;1.80;;
48621;SDS011;34421;48.944;9.460;2022-07-29T01:25:12;3.08;;;1.45;;
48621;SDS011;34421;48.944;9.460;2022-07-29T01:30:24;2.45;;;1.50;;
48621;SDS011;34421;48.944;9.460;2022-07-29T01:32:53;2.17;;;1.48;;
48621;SDS011;34421;48.944;9.460;2022-07-29T01:35:25;3.25;;;1.75;;
48621;SDS011;34421;48.944;9.460;2022-07-29T01:40:34;3.03;;;1.70;;
48621;SDS011;34421;48.944;9.460;2022-07-29T01:45:34;2.53;;;1.67;;
48621;SDS011;34421;48.944;9.460;2022-07-29T01:48:06;3.97;;;1.65;;
48621;SDS011;34421;48.944;9.460;2022-07-29T01:50:40;2.10;;;1.40;;
48621;SDS011;34421;48.944;9.460;2022-07-29T01:53:12;3.42;;;1.98;;
48621;SDS011;34421;48.944;9.460;2022-07-29T01:55:46;2.47;;;1.70;;
48621;SDS011;34421;48.944;9.460;2022-07-29T01:58:13;2.20;;;1.52;;
48621;SDS011;34421;48.944;9.460;2022-07-29T02:00:40;3.13;;;1.83;;
48621;SDS011;34421;48.944;9.460;2022-07-29T02:03:09;1.98;;;1.30;;
48621;SDS011;34421;48.944;9.460;2022-07-29T02:05:37;3.33;;;1.63;;
48621;SDS011;34421;48.944;9.460;2022-07-29T02:08:04;2.55;;;1.50;;
48621;SDS011;34421;48.944;9.460;2022-07-29T02:10:31;2.35;;;1.73;;
48621;SDS011;34421;48.944;9.460;2022-07-29T02:12:58;2.78;;;1.73;;
48621;SDS011;34421;48.944;9.460;2022-07-29T02:15:27;2.65;;;1.80;;
48621;SDS011;34421;48.944;9.460;2022-07-29T02:18:00;3.42;;;2.17;;
48621;SDS011;34421;48.944;9.460;2022-07-29T02:20:29;3.67;;;1.95;;
48621;SDS011;34421;48.944;9.460;2022-07-29T02:22:58;2.92;;;1.83;;
48621;SDS011;34421;48.944;9.460;2022-07-29T02:25:27;3.03;;;1.95;;
48621;SDS011;34421;48.944;9.460;2022-07-29T02:27:54;3.30;;;2.08;;
48621;SDS011;34421;48.944;9.460;2022-07-29T02:30:21;3.08;;;1.83;;
48621;SDS011;34421;48.944;9.460;2022-07-29T02:32:49;2.83;;;1.88;;
48621;SDS011;34421;48.944;9.460;2022-07-29T02:35:16;3.33;;;2.22;;
48621;SDS011;34421;48.944;9.460;2022-07-29T02:37:43;2.95;;;2.03;;
48621;SDS011;34421;48.944;9.460;2022-07-29T02:40:30;3.33;;;1.95;;
48621;SDS011;34421;48.944;9.460;2022-07-29T02:42:56;3.00;;;2.10;;
48621;SDS011;34421;48.944;9.460;2022-07-29T02:45:22;3.00;;;2.10;;
48621;SDS011;34421;48.944;9.460;2022-07-29T02:47:48;3.55;;;2.20;;
48621;SDS011;34421;48.944;9.460;2022-07-29T02:50:16;3.28;;;1.98;;
48621;SDS011;34421;48.944;9.460;2022-07-29T02:52:47;3.85;;;1.95;;
48621;SDS011;34421;48.944;9.460;2022-07-29T02:58:30;3.55;;;2.00;;
48621;SDS011;34421;48.944;9.460;2022-07-29T03:01:02;2.78;;;1.95;;
48621;SDS011;34421;48.944;9.460;2022-07-29T03:03:34;3.85;;;2.20;;
48621;SDS011;34421;48.944;9.460;2022-07-29T03:06:02;3.08;;;1.60;;
48621;SDS011;34421;48.944;9.460;2022-07-29T03:08:30;3.17;;;2.00;;
48621;SDS011;34421;48.944;9.460;2022-07-29T03:10:57;2.75;;;1.92;;
48621;SDS011;34421;48.944;9.460;2022-07-29T03:13:23;3.28;;;2.10;;
48621;SDS011;34421;48.944;9.460;2022-07-29T03:15:50;2.45;;;1.60;;
48621;SDS011;34421;48.944;9.460;2022-07-29T03:18:16;3.80;;;2.05;;
48621;SDS011;34421;48.944;9.460;2022-07-29T03:20:42;4.20;;;2.10;;
48621;SDS011;34421;48.944;9.460;2022-07-29T03:23:07;3.30;;;2.20;;
48621;SDS011;34421;48.944;9.460;2022-07-29T03:25:33;3.17;;;2.10;;
48621;SDS011;34421;48.944;9.460;2022-07-29T03:27:59;4.22;;;2.05;;
48621;SDS011;34421;48.944;9.460;2022-07-29T03:30:24;3.45;;;2.15;;
48621;SDS011;34421;48.944;9.460;2022-07-29T03:32:50;3.28;;;2.25;;
48621;SDS011;34421;48.944;9.460;2022-07-29T03:35:16;2.50;;;1.80;;
48621;SDS011;34421;48.944;9.460;2022-07-29T03:37:42;3.63;;;2.13;;
48621;SDS011;34421;48.944;9.460;2022-07-29T03:40:09;3.17;;;2.20;;
48621;SDS011;34421;48.944;9.460;2022-07-29T03:42:36;3.13;;;2.08;;
48621;SDS011;34421;48.944;9.460;2022-07-29T03:45:08;2.97;;;2.05;;
48621;SDS011;34421;48.944;9.460;2022-07-29T03:47:38;4.15;;;2.22;;
48621;SDS011;34421;48.944;9.460;2022-07-29T03:50:08;2.72;;;2.00;;
48621;SDS011;34421;48.944;9.460;2022-07-29T03:52:38;3.13;;;2.05;;
48621;SDS011;34421;48.944;9.460;2022-07-29T03:55:04;3.53;;;2.00;;
48621;SDS011;34421;48.944;9.460;2022-07-29T03:57:30;3.60;;;2.30;;
48621;SDS011;34421;48.944;9.460;2022-07-29T03:59:56;4.78;;;2.25;;
48621;SDS011;34421;48.944;9.460;2022-07-29T04:02:22;2.95;;;2.15;;
48621;SDS011;34421;48.944;9.460;2022-07-29T04:04:48;3.40;;;2.15;;
48621;SDS011;34421;48.944;9.460;2022-07-29T04:07:14;3.60;;;2.13;;
48621;SDS011;34421;48.944;9.460;2022-07-29T04:09:40;4.07;;;2.00;;
48621;SDS011;34421;48.944;9.460;2022-07-29T04:12:05;3.22;;;2.28;;
48621;SDS011;34421;48.944;9.460;2022-07-29T04:14:31;3.30;;;2.10;;
48621;SDS011;34421;48.944;9.460;2022-07-29T04:16:58;2.85;;;1.60;;
48621;SDS011;34421;48.944;9.460;2022-07-29T04:19:24;2.70;;;1.70;;
48621;SDS011;34421;48.944;9.460;2022-07-29T04:21:49;2.65;;;1.80;;
48621;SDS011;34421;48.944;9.460;2022-07-29T04:24:15;3.78;;;2.10;;
48621;SDS011;34421;48.944;9.460;2022-07-29T04:26:40;4.47;;;1.95;;
48621;SDS011;34421;48.944;9.460;2022-07-29T04:29:06;3.10;;;2.00;;
48621;SDS011;34421;48.944;9.460;2022-07-29T04:31:31;4.72;;;1.75;;
48621;SDS011;34421;48.944;9.460;2022-07-29T04:33:56;3.30;;;2.20;;
48621;SDS011;34421;48.944;9.460;2022-07-29T04:36:22;2.75;;;1.90;;
48621;SDS011;34421;48.944;9.460;2022-07-29T04:38:47;2.67;;;1.85;;
48621;SDS011;34421;48.944;9.460;2022-07-29T04:41:13;3.15;;;2.40;;
48621;SDS011;34421;48.944;9.460;2022-07-29T04:43:39;2.63;;;1.85;;
48621;SDS011;34421;48.944;9.460;2022-07-29T04:46:05;2.92;;;1.85;;
48621;SDS011;34421;48.944;9.460;2022-07-29T04:48:31;3.60;;;2.10;;
48621;SDS011;34421;48.944;9.460;2022-07-29T04:50:57;3.40;;;1.98;;
48621;SDS011;34421;48.944;9.460;2022-07-29T04:53:22;4.38;;;2.10;;
48621;SDS011;34421;48.944;9.460;2022-07-29T04:55:48;3.13;;;2.15;;
48621;SDS011;34421;48.944;9.460;2022-07-29T04:58:13;3.03;;;1.90;;
48621;SDS011;34421;48.944;9.460;2022-07-29T05:00:39;2.78;;;1.63;;
48621;SDS011;34421;48.944;9.460;2022-07-29T05:03:04;3.10;;;2.15;;
48621;SDS011;34421;48.944;9.460;2022-07-29T05:05:29;3.13;;;2.33;;
48621;SDS011;34421;48.944;9.460;2022-07-29T05:07:55;3.40;;;2.30;;
48621;SDS011;34421;48.944;9.460;2022-07-29T05:10:20;2.70;;;2.00;;
48621;SDS011;34421;48.944;9.460;2022-07-29T05:12:46;3.85;;;2.28;;
48621;SDS011;34421;48.944;9.460;2022-07-29T05:15:12;4.57;;;2.55;;
48621;SDS011;34421;48.944;9.460;2022-07-29T05:17:37;2.88;;;2.08;;
48621;SDS011;34421;48.944;9.460;2022-07-29T05:20:03;3.28;;;1.80;;
48621;SDS011;34421;48.944;9.460;2022-07-29T05:22:29;3.05;;;2.10;;
48621;SDS011;34421;48.944;9.460;2022-07-29T05:24:54;4.57;;;2.15;;
48621;SDS011;34421;48.944;9.460;2022-07-29T05:27:20;2.88;;;1.88;;
48621;SDS011;34421;48.944;9.460;2022-07-29T05:29:45;3.17;;;2.15;;
48621;SDS011;34421;48.944;9.460;2022-07-29T05:32:11;3.22;;;2.00;;
48621;SDS011;34421;48.944;9.460;2022-07-29T05:34:37;4.15;;;2.35;;
48621;SDS011;34421;48.944;9.460;2022-07-29T05:37:02;3.38;;;1.92;;
48621;SDS011;34421;48.944;9.460;2022-07-29T05:39:27;3.50;;;2.40;;
48621;SDS011;34421;48.944;9.460;2022-07-29T05:41:53;3.15;;;2.25;;
48621;SDS011;34421;48.944;9.460;2022-07-29T05:44:18;2.83;;;2.13;;
48621;SDS011;34421;48.944;9.460;2022-07-29T05:46:43;3.85;;;2.15;;
48621;SDS011;34421;48.944;9.460;2022-07-29T05:49:09;3.25;;;2.10;;
48621;SDS011;34421;48.944;9.460;2022-07-29T05:51:34;2.78;;;1.95;;
48621;SDS011;34421;48.944;9.460;2022-07-29T05:54:00;4.80;;;2.00;;
48621;SDS011;34421;48.944;9.460;2022-07-29T05:56:25;3.15;;;2.08;;
48621;SDS011;34421;48.944;9.460;2022-07-29T05:58:51;3.28;;;2.08;;
48621;SDS011;34421;48.944;9.460;2022-07-29T06:01:17;2.67;;;1.90;;
48621;SDS011;34421;48.944;9.460;2022-07-29T06:03:42;3.22;;;1.95;;
48621;SDS011;34421;48.944;9.460;2022-07-29T06:06:08;3.50;;;2.22;;
48621;SDS011;34421;48.944;9.460;2022-07-29T06:08:33;3.55;;;1.90;;
48621;SDS011;34421;48.944;9.460;2022-07-29T06:11:03;2.53;;;1.88;;
48621;SDS011;34421;48.944;9.460;2022-07-29T06:13:29;3.08;;;2.03;;
48621;SDS011;34421;48.944;9.460;2022-07-29T06:15:55;3.42;;;2.15;;
48621;SDS011;34421;48.944;9.460;2022-07-29T06:18:20;3.42;;;2.17;;
48621;SDS011;34421;48.944;9.460;2022-07-29T06:20:48;3.33;;;2.17;;
48621;SDS011;34421;48.944;9.460;2022-07-29T06:23:18;2.95;;;1.83;;
48621;SDS011;34421;48.944;9.460;2022-07-29T06:25:44;3.00;;;1.90;;
48621;SDS011;34421;48.944;9.460;2022-07-29T06:28:09;3.00;;;1.80;;
48621;SDS011;34421;48.944;9.460;2022-07-29T06:30:36;3.15;;;2.22;;
48621;SDS011;34421;48.944;9.460;2022-07-29T06:33:02;2.80;;;1.88;;
48621;SDS011;34421;48.944;9.460;2022-07-29T06:35:27;4.10;;;2.10;;
48621;SDS011;34421;48.944;9.460;2022-07-29T06:37:53;3.45;;;2.00;;
48621;SDS011;34421;48.944;9.460;2022-07-29T06:40:18;2.53;;;1.58;;
48621;SDS011;34421;48.944;9.460;2022-07-29T06:43:02;3.72;;;1.70;;
48621;SDS011;34421;48.944;9.460;2022-07-29T06:45:28;2.67;;;1.42;;
48621;SDS011;34421;48.944;9.460;2022-07-29T06:47:53;2.58;;;1.38;;
48621;SDS011;34421;48.944;9.460;2022-07-29T06:50:19;4.40;;;1.77;;
48621;SDS011;34421;48.944;9.460;2022-07-29T06:52:44;2.72;;;1.33;;
48621;SDS011;34421;48.944;9.460;2022-07-29T06:55:10;1.92;;;1.42;;
48621;SDS011;34421;48.944;9.460;2022-07-29T06:57:35;2.90;;;1.70;;
48621;SDS011;34421;48.944;9.460;2022-07-29T07:00:00;2.15;;;1.15;;
48621;SDS011;34421;48.944;9.460;2022-07-29T07:02:26;2.35;;;1.30;;
48621;SDS011;34421;48.944;9.460;2022-07-29T07:04:51;2.17;;;1.08;;
48621;SDS011;34421;48.944;9.460;2022-07-29T07:07:17;1.55;;;1.00;;
48621;SDS011;34421;48.944;9.460;2022-07-29T07:09:42;2.17;;;1.10;;
48621;SDS011;34421;48.944;9.460;2022-07-29T07:12:09;2.35;;;1.20;;
48621;SDS011;34421;48.944;9.460;2022-07-29T07:14:34;2.30;;;1.10;;
48621;SDS011;34421;48.944;9.460;2022-07-29T07:17:00;1.75;;;1.08;;
48621;SDS011;34421;48.944;9.460;2022-07-29T07:19:26;1.73;;;1.00;;
48621;SDS011;34421;48.944;9.460;2022-07-29T07:21:54;1.77;;;1.20;;
48621;SDS011;34421;48.944;9.460;2022-07-29T07:24:20;1.98;;;1.17;;
48621;SDS011;34421;48.944;9.460;2022-07-29T07:26:45;2.08;;;0.90;;
48621;SDS011;34421;48.944;9.460;2022-07-29T07:29:11;3.33;;;1.40;;
48621;SDS011;34421;48.944;9.460;2022-07-29T07:31:36;1.90;;;0.98;;
48621;SDS011;34421;48.944;9.460;2022-07-29T07:34:02;1.30;;;0.90;;
48621;SDS011;34421;48.944;9.460;2022-07-29T07:36:28;2.03;;;1.10;;
48621;SDS011;34421;48.944;9.460;2022-07-29T07:38:53;2.47;;;1.30;;
48621;SDS011;34421;48.944;9.460;2022-07-29T07:41:19;2.80;;;1.10;;
48621;SDS011;34421;48.944;9.460;2022-07-29T07:43:45;1.52;;;1.00;;
48621;SDS011;34421;48.944;9.460;2022-07-29T07:46:10;2.17;;;0.95;;
48621;SDS011;34421;48.944;9.460;2022-07-29T07:48:35;1.83;;;1.10;;
48621;SDS011;34421;48.944;9.460;2022-07-29T07:51:01;1.50;;;0.65;;
48621;SDS011;34421;48.944;9.460;2022-07-29T07:53:26;2.13;;;1.25;;
48621;SDS011;34421;48.944;9.460;2022-07-29T07:55:52;2.30;;;1.30;;
48621;SDS011;34421;48.944;9.460;2022-07-29T07:58:17;2.28;;;1.20;;
48621;SDS011;34421;48.944;9.460;2022-07-29T08:00:43;1.77;;;1.00;;
48621;SDS011;34421;48.944;9.460;2022-07-29T08:03:08;1.48;;;0.85;;
48621;SDS011;34421;48.944;9.460;2022-07-29T08:05:37;1.95;;;1.20;;
48621;SDS011;34421;48.944;9.460;2022-07-29T08:08:03;2.38;;;1.20;;
48621;SDS011;34421;48.944;9.460;2022-07-29T08:10:28;2.17;;;1.20;;
48621;SDS011;34421;48.944;9.460;2022-07-29T08:13:12;2.00;;;1.00;;
48621;SDS011;34421;48.944;9.460;2022-07-29T08:15:38;2.00;;;1.17;;
48621;SDS011;34421;48.944;9.460;2022-07-29T08:18:05;1.52;;;1.05;;
48621;SDS011;34421;48.944;9.460;2022-07-29T08:20:30;3.03;;;1.80;;
48621;SDS011;34421;48.944;9.460;2022-07-29T08:22:58;2.78;;;1.10;;
48621;SDS011;34421;48.944;9.460;2022-07-29T08:25:24;2.65;;;1.45;;
48621;SDS011;34421;48.944;9.460;2022-07-29T08:27:49;2.67;;;1.15;;
48621;SDS011;34421;48.944;9.460;2022-07-29T08:30:14;2.22;;;1.20;;
48621;SDS011;34421;48.944;9.460;2022-07-29T08:32:40;1.67;;;1.00;;
48621;SDS011;34421;48.944;9.460;2022-07-29T08:35:05;2.47;;;1.25;;
48621;SDS011;34421;48.944;9.460;2022-07-29T08:37:31;1.40;;;0.88;;
48621;SDS011;34421;48.944;9.460;2022-07-29T08:39:56;2.95;;;1.38;;
48621;SDS011;34421;48.944;9.460;2022-07-29T08:42:22;2.75;;;1.80;;
48621;SDS011;34421;48.944;9.460;2022-07-29T08:44:47;2.55;;;1.20;;
48621;SDS011;34421;48.944;9.460;2022-07-29T08:47:14;2.25;;;1.48;;
48621;SDS011;34421;48.944;9.460;2022-07-29T08:49:40;2.58;;;1.83;;
48621;SDS011;34421;48.944;9.460;2022-07-29T08:52:05;2.45;;;1.30;;
48621;SDS011;34421;48.944;9.460;2022-07-29T08:54:31;2.97;;;1.80;;
48621;SDS011;34421;48.944;9.460;2022-07-29T08:56:57;2.67;;;1.50;;
48621;SDS011;34421;48.944;9.460;2022-07-29T08:59:24;2.78;;;1.75;;
48621;SDS011;34421;48.944;9.460;2022-07-29T09:01:52;2.78;;;1.80;;
48621;SDS011;34421;48.944;9.460;2022-07-29T09:04:19;2.72;;;1.65;;
48621;SDS011;34421;48.944;9.460;2022-07-29T09:06:49;2.60;;;1.50;;
48621;SDS011;34421;48.944;9.460;2022-07-29T09:09:17;3.08;;;1.67;;
48621;SDS011;34421;48.944;9.460;2022-07-29T09:11:42;2.58;;;1.33;;
48621;SDS011;34421;48.944;9.460;2022-07-29T09:14:08;2.25;;;1.30;;
48621;SDS011;34421;48.944;9.460;2022-07-29T09:16:55;2.92;;;1.77;;
48621;SDS011;34421;48.944;9.460;2022-07-29T09:21:49;3.10;;;1.65;;
48621;SDS011;34421;48.944;9.460;2022-07-29T09:24:25;2.72;;;1.55;;
48621;SDS011;34421;48.944;9.460;2022-07-29T09:26:52;2.00;;;1.30;;
48621;SDS011;34421;48.944;9.460;2022-07-29T09:29:22;2.47;;;1.80;;
48621;SDS011;34421;48.944;9.460;2022-07-29T09:31:49;4.13;;;1.63;;
48621;SDS011;34421;48.944;9.460;2022-07-29T09:34:16;3.38;;;2.20;;
48621;SDS011;34421;48.944;9.460;2022-07-29T09:36:47;2.75;;;2.03;;
48621;SDS011;34421;48.944;9.460;2022-07-29T09:39:15;4.35;;;1.90;;
48621;SDS011;34421;48.944;9.460;2022-07-29T09:41:53;3.03;;;1.95;;
48621;SDS011;34421;48.944;9.460;2022-07-29T09:44:20;3.13;;;1.90;;
48621;SDS011;34421;48.944;9.460;2022-07-29T09:46:56;3.92;;;2.08;;
48621;SDS011;34421;48.944;9.460;2022-07-29T09:49:31;2.65;;;1.55;;
48621;SDS011;34421;48.944;9.460;2022-07-29T09:54:26;2.45;;;1.63;;
48621;SDS011;34421;48.944;9.460;2022-07-29T09:56:53;2.63;;;1.67;;
48621;SDS011;34421;48.944;9.460;2022-07-29T09:59:19;2.22;;;1.65;;
48621;SDS011;34421;48.944;9.460;2022-07-29T10:01:51;2.33;;;1.60;;
48621;SDS011;34421;48.944;9.460;2022-07-29T10:04:17;2.85;;;2.05;;
48621;SDS011;34421;48.944;9.460;2022-07-29T10:06:59;3.95;;;2.10;;
48621;SDS011;34421;48.944;9.460;2022-07-29T10:09:26;2.55;;;1.85;;
48621;SDS011;34421;48.944;9.460;2022-07-29T10:14:50;2.20;;;1.60;;
48621;SDS011;34421;48.944;9.460;2022-07-29T10:17:16;3.97;;;2.03;;
48621;SDS011;34421;48.944;9.460;2022-07-29T10:19:43;3.40;;;2.10;;
48621;SDS011;34421;48.944;9.460;2022-07-29T10:22:09;3.35;;;2.08;;
48621;SDS011;34421;48.944;9.460;2022-07-29T10:24:35;3.05;;;2.20;;
48621;SDS011;34421;48.944;9.460;2022-07-29T10:27:04;2.83;;;1.63;;
48621;SDS011;34421;48.944;9.460;2022-07-29T10:29:31;3.25;;;2.15;;
48621;SDS011;34421;48.944;9.460;2022-07-29T10:43:31;2.53;;;1.88;;
48621;SDS011;34421;48.944;9.460;2022-07-29T10:46:01;2.28;;;1.80;;
48621;SDS011;34421;48.944;9.460;2022-07-29T10:48:28;2.50;;;1.65;;
48621;SDS011;34421;48.944;9.460;2022-07-29T10:50:57;2.85;;;1.80;;
48621;SDS011;34421;48.944;9.460;2022-07-29T11:01:41;3.75;;;2.00;;
48621;SDS011;34421;48.944;9.460;2022-07-29T11:04:06;3.95;;;2.03;;
48621;SDS011;34421;48.944;9.460;2022-07-29T11:09:31;3.08;;;1.98;;
48621;SDS011;34421;48.944;9.460;2022-07-29T11:11:57;3.72;;;2.10;;
48621;SDS011;34421;48.944;9.460;2022-07-29T11:17:27;5.10;;;2.10;;
48621;SDS011;34421;48.944;9.460;2022-07-29T11:22:56;3.38;;;2.10;;
48621;SDS011;34421;48.944;9.460;2022-07-29T11:25:22;2.80;;;2.00;;
48621;SDS011;34421;48.944;9.460;2022-07-29T11:27:48;3.05;;;2.10;;
48621;SDS011;34421;48.944;9.460;2022-07-29T11:30:14;3.13;;;1.90;;
48621;SDS011;34421;48.944;9.460;2022-07-29T11:32:40;3.22;;;2.00;;
48621;SDS011;34421;48.944;9.460;2022-07-29T11:37:40;2.30;;;1.70;;
48621;SDS011;34421;48.944;9.460;2022-07-29T11:45:07;3.33;;;2.00;;
48621;SDS011;34421;48.944;9.460;2022-07-29T11:50:14;2.88;;;1.92;;
48621;SDS011;34421;48.944;9.460;2022-07-29T11:52:42;3.38;;;1.88;;
48621;SDS011;34421;48.944;9.460;2022-07-29T11:55:11;2.50;;;1.55;;
48621;SDS011;34421;48.944;9.460;2022-07-29T11:57:53;3.97;;;2.17;;
48621;SDS011;34421;48.944;9.460;2022-07-29T12:00:24;2.72;;;1.80;;
48621;SDS011;34421;48.944;9.460;2022-07-29T12:02:53;2.78;;;1.33;;
48621;SDS011;34421;48.944;9.460;2022-07-29T12:05:19;4.07;;;1.92;;
48621;SDS011;34421;48.944;9.460;2022-07-29T12:07:45;3.17;;;1.88;;
48621;SDS011;34421;48.944;9.460;2022-07-29T12:10:12;2.88;;;1.75;;
48621;SDS011;34421;48.944;9.460;2022-07-29T12:12:37;3.17;;;1.85;;
48621;SDS011;34421;48.944;9.460;2022-07-29T12:15:16;3.00;;;2.08;;
48621;SDS011;34421;48.944;9.460;2022-07-29T12:17:45;3.33;;;2.10;;
48621;SDS011;34421;48.944;9.460;2022-07-29T12:20:11;3.17;;;2.10;;
48621;SDS011;34421;48.944;9.460;2022-07-29T12:22:39;3.70;;;1.95;;
48621;SDS011;34421;48.944;9.460;2022-07-29T12:25:07;3.25;;;1.90;;
48621;SDS011;34421;48.944;9.460;2022-07-29T12:27:35;2.72;;;1.92;;
48621;SDS011;34421;48.944;9.460;2022-07-29T12:30:03;3.17;;;2.30;;
48621;SDS011;34421;48.944;9.460;2022-07-29T12:35:05;3.58;;;1.90;;
48621;SDS011;34421;48.944;9.460;2022-07-29T12:37:33;5.22;;;2.40;;
48621;SDS011;34421;48.944;9.460;2022-07-29T12:40:00;3.10;;;2.13;;
48621;SDS011;34421;48.944;9.460;2022-07-29T12:42:27;5.03;;;2.72;;
48621;SDS011;34421;48.944;9.460;2022-07-29T12:44:52;3.20;;;2.17;;
48621;SDS011;34421;48.944;9.460;2022-07-29T12:47:18;3.45;;;2.35;;
48621;SDS011;34421;48.944;9.460;2022-07-29T12:49:44;4.10;;;2.60;;
48621;SDS011;34421;48.944;9.460;2022-07-29T12:52:23;3.40;;;2.10;;
48621;SDS011;34421;48.944;9.460;2022-07-29T12:54:53;3.75;;;1.85;;
48621;SDS011;34421;48.944;9.460;2022-07-29T12:57:18;3.78;;;2.05;;
48621;SDS011;34421;48.944;9.460;2022-07-29T12:59:44;3.33;;;1.83;;
48621;SDS011;34421;48.944;9.460;2022-07-29T13:02:22;2.75;;;1.60;;
48621;SDS011;34421;48.944;9.460;2022-07-29T13:05:00;2.40;;;1.25;;
48621;SDS011;34421;48.944;9.460;2022-07-29T13:07:28;2.08;;;1.50;;
48621;SDS011;34421;48.944;9.460;2022-07-29T13:10:09;1.83;;;1.02;;
48621;SDS011;34421;48.944;9.460;2022-07-29T13:12:36;1.58;;;1.05;;
48621;SDS011;34421;48.944;9.460;2022-07-29T13:15:11;1.52;;;0.93;;
48621;SDS011;34421;48.944;9.460;2022-07-29T13:17:42;1.30;;;1.05;;
48621;SDS011;34421;48.944;9.460;2022-07-29T13:20:11;1.67;;;0.95;;
48621;SDS011;34421;48.944;9.460;2022-07-29T13:22:41;2.72;;;1.20;;
48621;SDS011;34421;48.944;9.460;2022-07-29T13:25:09;2.22;;;0.90;;
48621;SDS011;34421;48.944;9.460;2022-07-29T13:27:36;2.78;;;0.98;;
48621;SDS011;34421;48.944;9.460;2022-07-29T13:30:04;1.88;;;1.00;;
48621;SDS011;34421;48.944;9.460;2022-07-29T13:32:33;1.60;;;1.00;;
48621;SDS011;34421;48.944;9.460;2022-07-29T13:35:00;1.65;;;1.27;;
48621;SDS011;34421;48.944;9.460;2022-07-29T13:37:28;2.15;;;1.25;;
48621;SDS011;34421;48.944;9.460;2022-07-29T13:39:54;2.00;;;1.23;;
48621;SDS011;34421;48.944;9.460;2022-07-29T13:42:21;2.00;;;1.23;;
48621;SDS011;34421;48.944;9.460;2022-07-29T13:44:47;1.08;;;0.75;;
48621;SDS011;34421;48.944;9.460;2022-07-29T13:47:13;1.80;;;1.00;;
48621;SDS011;34421;48.944;9.460;2022-07-29T13:49:39;1.40;;;0.90;;
48621;SDS011;34421;48.944;9.460;2022-07-29T13:52:04;1.48;;;0.90;;
48621;SDS011;34421;48.944;9.460;2022-07-29T13:54:32;1.45;;;0.90;;
48621;SDS011;34421;48.944;9.460;2022-07-29T13:56:57;2.47;;;1.20;;
48621;SDS011;34421;48.944;9.460;2022-07-29T13:59:22;2.00;;;1.10;;
48621;SDS011;34421;48.944;9.460;2022-07-29T14:01:48;2.10;;;1.10;;
48621;SDS011;34421;48.944;9.460;2022-07-29T14:04:13;1.55;;;0.88;;
48621;SDS011;34421;48.944;9.460;2022-07-29T14:06:39;2.05;;;0.98;;
48621;SDS011;34421;48.944;9.460;2022-07-29T14:09:04;1.30;;;0.80;;
48621;SDS011;34421;48.944;9.460;2022-07-29T14:11:31;2.58;;;1.52;;
48621;SDS011;34421;48.944;9.460;2022-07-29T14:13:57;1.30;;;0.90;;
48621;SDS011;34421;48.944;9.460;2022-07-29T14:16:22;1.80;;;1.10;;
48621;SDS011;34421;48.944;9.460;2022-07-29T14:18:47;1.52;;;0.90;;
48621;SDS011;34421;48.944;9.460;2022-07-29T14:21:12;1.77;;;1.17;;
48621;SDS011;34421;48.944;9.460;2022-07-29T14:23:38;1.42;;;0.90;;
48621;SDS011;34421;48.944;9.460;2022-07-29T14:26:03;2.03;;;1.20;;
48621;SDS011;34421;48.944;9.460;2022-07-29T14:28:29;2.17;;;1.05;;
48621;SDS011;34421;48.944;9.460;2022-07-29T14:30:54;1.90;;;1.13;;
48621;SDS011;34421;48.944;9.460;2022-07-29T14:33:20;2.13;;;1.27;;
48621;SDS011;34421;48.944;9.460;2022-07-29T14:35:45;1.85;;;1.30;;
48621;SDS011;34421;48.944;9.460;2022-07-29T14:38:10;1.80;;;1.17;;
48621;SDS011;34421;48.944;9.460;2022-07-29T14:40:36;2.00;;;1.20;;
48621;SDS011;34421;48.944;9.460;2022-07-29T14:43:01;1.63;;;1.13;;
48621;SDS011;34421;48.944;9.460;2022-07-29T14:45:27;2.40;;;1.42;;
48621;SDS011;34421;48.944;9.460;2022-07-29T14:47:53;1.77;;;1.10;;
48621;SDS011;34421;48.944;9.460;2022-07-29T14:50:19;3.10;;;1.17;;
48621;SDS011;34421;48.944;9.460;2022-07-29T14:52:44;2.80;;;1.10;;
48621;SDS011;34421;48.944;9.460;2022-07-29T14:55:10;2.53;;;1.25;;
48621;SDS011;34421;48.944;9.460;2022-07-29T14:57:35;2.40;;;1.50;;
48621;SDS011;34421;48.944;9.460;2022-07-29T15:00:01;1.63;;;1.20;;
48621;SDS011;34421;48.944;9.460;2022-07-29T15:02:27;2.33;;;1.40;;
48621;SDS011;34421;48.944;9.460;2022-07-29T15:04:53;1.95;;;1.52;;
48621;SDS011;34421;48.944;9.460;2022-07-29T15:07:18;2.63;;;1.73;;
48621;SDS011;34421;48.944;9.460;2022-07-29T15:09:43;3.53;;;1.70;;
48621;SDS011;34421;48.944;9.460;2022-07-29T15:12:10;2.03;;;1.20;;
48621;SDS011;34421;48.944;9.460;2022-07-29T15:14:35;3.13;;;1.52;;
48621;SDS011;34421;48.944;9.460;2022-07-29T15:17:01;2.58;;;1.40;;
48621;SDS011;34421;48.944;9.460;2022-07-29T15:19:27;2.38;;;1.40;;
48621;SDS011;34421;48.944;9.460;2022-07-29T15:21:52;2.13;;;1.30;;
48621;SDS011;34421;48.944;9.460;2022-07-29T15:24:18;2.15;;;1.48;;
48621;SDS011;34421;48.944;9.460;2022-07-29T15:26:43;2.95;;;1.70;;
48621;SDS011;34421;48.944;9.460;2022-07-29T15:29:09;2.75;;;1.70;;
48621;SDS011;34421;48.944;9.460;2022-07-29T15:31:35;2.05;;;1.30;;
48621;SDS011;34421;48.944;9.460;2022-07-29T15:34:00;2.38;;;1.38;;
48621;SDS011;34421;48.944;9.460;2022-07-29T15:36:25;2.08;;;1.38;;
48621;SDS011;34421;48.944;9.460;2022-07-29T15:38:52;2.78;;;1.60;;
48621;SDS011;34421;48.944;9.460;2022-07-29T15:41:18;2.00;;;1.70;;
48621;SDS011;34421;48.944;9.460;2022-07-29T15:43:44;2.80;;;1.52;;
48621;SDS011;34421;48.944;9.460;2022-07-29T15:46:12;3.08;;;1.60;;
48621;SDS011;34421;48.944;9.460;2022-07-29T15:48:57;2.70;;;1.65;;
48621;SDS011;34421;48.944;9.460;2022-07-29T15:51:22;3.00;;;1.55;;
48621;SDS011;34421;48.944;9.460;2022-07-29T15:53:48;2.20;;;1.20;;